Lisse, Netherlands
Current Conditions -  °F | °C
As of 8:25 AM on Sunday 23 Nov 2014 (Local Time) from EHAM Reporting Station
Clear Clear  
Wind Chill:   Ceiling: Unl
Heat Index:   Visibility: 4mi
Dew Point:   Wind: 10mph
Humidity: 93%   Direction: 150°SSE
Pressure: 30"   Gusts: NA
Location:  52.26°N, 4.56°E
Report Text: EHAM 230725Z 15009KT 7000 NSC 09/08 Q1016 BECMG CAVOK
Loading
Personal Weather Stations






























Interactive Weather Map New forecast layout! Learn more

10-Day Weather Forecast

Advertisements
Track Severe Weather on mobile